createdAt,value
2022-09-02T00:02:46.481Z,12.88
2022-09-02T00:07:31.741Z,10.68
2022-09-02T00:12:17.059Z,10.65
2022-09-02T00:17:02.576Z,12.35
2022-09-02T00:21:51.267Z,11.20
2022-09-02T00:26:36.373Z,10.80
2022-09-02T00:31:21.779Z,11.25
2022-09-02T00:36:08.126Z,11.70
2022-09-02T00:40:56.067Z,11.43
2022-09-02T00:45:41.168Z,11.18
2022-09-02T00:50:31.593Z,11.20
2022-09-02T00:55:19.530Z,10.43
2022-09-02T01:00:12.048Z,10.15
2022-09-02T01:04:58.805Z,12.07
2022-09-02T01:09:44.245Z,9.48
2022-09-02T01:14:30.132Z,11.32
2022-09-02T01:19:24.084Z,12.52
2022-09-02T01:24:12.297Z,10.82
2022-09-02T01:28:57.618Z,12.52
2022-09-02T01:33:43.490Z,11.95
2022-09-02T01:38:31.043Z,10.15
2022-09-02T01:43:21.778Z,11.88
2022-09-02T01:48:08.297Z,11.27
2022-09-02T01:52:53.467Z,10.00
2022-09-02T01:57:38.914Z,13.10
2022-09-02T02:02:27.015Z,12.15
2022-09-02T02:07:12.507Z,10.20
2022-09-02T02:11:57.937Z,11.20
2022-09-02T02:16:43.485Z,14.45
2022-09-02T02:21:31.908Z,14.57
2022-09-02T02:26:17.297Z,10.75
2022-09-02T02:31:02.819Z,11.63
2022-09-02T02:35:48.180Z,13.77
2022-09-02T02:40:36.208Z,15.30
2022-09-02T02:45:21.745Z,14.15
2022-09-02T02:50:07.823Z,11.80
2022-09-02T02:54:53.213Z,10.77
2022-09-02T02:59:41.303Z,10.98
2022-09-02T03:04:26.623Z,13.93
2022-09-02T03:09:11.759Z,10.77
2022-09-02T03:13:57.819Z,13.73
2022-09-02T03:18:45.521Z,11.32
2022-09-02T03:23:30.984Z,13.68
2022-09-02T03:28:16.371Z,13.65
2022-09-02T03:33:05.548Z,11.18
2022-09-02T03:37:54.603Z,10.30
2022-09-02T03:42:43.200Z,14.27
2022-09-02T03:47:31.971Z,14.35
2022-09-02T03:52:17.258Z,13.20
2022-09-02T03:57:05.037Z,14.32
2022-09-02T04:01:51.976Z,13.98
2022-09-02T04:06:37.869Z,14.63
2022-09-02T04:11:25.287Z,15.35
2022-09-02T04:16:15.369Z,16.58
2022-09-02T04:21:02.720Z,13.75
2022-09-02T04:25:47.900Z,13.32
2022-09-02T04:30:33.346Z,16.88
2022-09-02T04:35:21.588Z,15.73
2022-09-02T04:40:07.830Z,13.95
2022-09-02T04:44:53.892Z,13.85
2022-09-02T04:49:39.218Z,15.13
2022-09-02T04:54:26.990Z,17.33
2022-09-02T04:59:12.714Z,14.02
2022-09-02T05:03:58.908Z,13.27
2022-09-02T05:08:48.295Z,15.27
2022-09-02T05:13:35.965Z,15.32
2022-09-02T05:18:21.466Z,20.17
2022-09-02T05:23:06.531Z,13.93
2022-09-02T05:27:51.942Z,15.60
2022-09-02T05:32:39.642Z,15.80
2022-09-02T05:37:25.915Z,13.82
2022-09-02T05:42:11.066Z,19.20
2022-09-02T05:46:56.387Z,15.35
2022-09-02T05:51:46.925Z,18.25
2022-09-02T05:56:32.416Z,17.95
2022-09-02T06:01:21.011Z,18.92
2022-09-02T06:06:07.262Z,16.33
2022-09-02T06:10:55.250Z,16.70
2022-09-02T06:15:45.152Z,16.10
2022-09-02T06:20:32.732Z,13.15
2022-09-02T06:25:21.068Z,16.00
2022-09-02T06:30:09.923Z,18.27
2022-09-02T06:34:55.245Z,13.50
2022-09-02T06:39:44.197Z,26.75
2022-09-02T06:44:30.119Z,16.40
2022-09-02T06:49:20.748Z,16.42
2022-09-02T06:54:07.940Z,17.77
2022-09-02T06:58:53.072Z,14.35
2022-09-02T07:03:50.838Z,26.33
2022-09-02T07:08:40.383Z,18.85
2022-09-02T07:13:25.826Z,15.43
2022-09-02T07:18:10.898Z,16.02
2022-09-02T07:22:56.790Z,27.63
2022-09-02T07:27:44.828Z,13.05
2022-09-02T07:32:30.298Z,15.45
2022-09-02T07:37:15.434Z,14.48
2022-09-02T07:42:01.032Z,13.10
2022-09-02T07:46:49.216Z,12.80
2022-09-02T07:51:34.975Z,22.48
2022-09-02T07:56:20.889Z,12.90
2022-09-02T08:01:06.601Z,14.38
2022-09-02T08:05:54.414Z,13.05
2022-09-02T08:10:40.753Z,10.93
2022-09-02T08:15:28.933Z,8.75
2022-09-02T08:20:16.780Z,12.50
2022-09-02T08:25:04.632Z,11.73
2022-09-02T08:29:50.044Z,10.63
2022-09-02T08:34:35.239Z,9.25
2022-09-02T08:39:20.687Z,10.52
2022-09-02T08:44:10.009Z,8.27
2022-09-02T08:48:59.568Z,7.93
2022-09-02T08:53:53.247Z,7.50
2022-09-02T08:58:43.349Z,7.90
2022-09-02T09:03:36.321Z,9.70
2022-09-02T09:08:31.359Z,11.50
2022-09-02T09:13:40.761Z,9.27
2022-09-02T09:18:39.336Z,9.75
2022-09-02T09:23:34.804Z,4.68
2022-09-02T09:28:20.652Z,7.28
2022-09-02T09:33:05.682Z,6.80
2022-09-02T09:37:55.044Z,5.90
2022-09-02T09:42:41.114Z,2.97
2022-09-02T09:47:28.649Z,4.68
2022-09-02T09:52:14.106Z,2.70
2022-09-02T09:57:21.694Z,4.35
2022-09-02T10:02:07.981Z,3.22
2022-09-02T10:06:53.742Z,4.13
2022-09-02T10:11:41.225Z,5.78
2022-09-02T10:16:43.150Z,3.30
2022-09-02T10:21:45.306Z,1.45
2022-09-02T10:26:41.188Z,2.83
2022-09-02T10:31:38.307Z,6.78
2022-09-02T10:36:31.709Z,1.80
2022-09-02T10:41:28.644Z,2.50
2022-09-02T10:46:21.161Z,2.40
2022-09-02T10:51:16.503Z,1.83
2022-09-02T10:56:04.846Z,4.10
2022-09-02T11:00:56.103Z,2.88
2022-09-02T11:05:48.398Z,2.92
2022-09-02T11:10:41.451Z,2.63
2022-09-02T11:15:36.385Z,1.50
2022-09-02T11:20:34.630Z,2.88
2022-09-02T11:25:25.646Z,1.08
2022-09-02T11:30:17.862Z,2.40
2022-09-02T11:35:09.829Z,2.55
2022-09-02T11:40:17.168Z,2.22
2022-09-02T11:45:26.009Z,1.85
2022-09-02T11:50:39.584Z,0.30
2022-09-02T11:55:30.467Z,2.50
2022-09-02T12:00:32.765Z,3.17
2022-09-02T12:05:50.223Z,3.20
2022-09-02T12:11:04.505Z,1.98
2022-09-02T12:16:27.477Z,0.75
2022-09-02T12:21:22.932Z,1.52
2022-09-02T12:26:14.056Z,2.25
2022-09-02T12:31:42.766Z,2.45
2022-09-02T12:36:52.314Z,3.13
2022-09-02T12:41:47.454Z,4.55
2022-09-02T12:46:51.892Z,2.22
2022-09-02T12:51:56.746Z,2.15
2022-09-02T12:56:51.207Z,1.73
2022-09-02T13:01:46.789Z,2.97
2022-09-02T13:06:45.885Z,2.13
2022-09-02T13:12:06.489Z,3.35
2022-09-02T13:17:36.018Z,4.32
2022-09-02T13:22:51.026Z,2.95
2022-09-02T13:28:06.734Z,3.50
2022-09-02T13:33:08.755Z,4.85
2022-09-02T13:38:00.868Z,5.18
2022-09-02T13:42:51.201Z,4.35
2022-09-02T13:47:38.553Z,5.83
2022-09-02T13:53:01.120Z,5.28
2022-09-02T13:57:34.992Z,5.70
2022-09-02T14:02:23.864Z,4.10
2022-09-02T14:07:11.997Z,5.57
2022-09-02T14:12:01.920Z,3.63
2022-09-02T14:16:47.375Z,3.50
2022-09-02T14:21:32.484Z,6.80
2022-09-02T14:26:26.804Z,5.78
2022-09-02T14:31:30.774Z,7.75
2022-09-02T14:36:31.944Z,5.32
2022-09-02T14:41:23.239Z,4.47
2022-09-02T14:46:12.801Z,5.22
2022-09-02T14:51:06.830Z,8.75
2022-09-02T14:55:55.136Z,4.28
2022-09-02T15:00:40.554Z,6.25
2022-09-02T15:05:26.760Z,5.47
2022-09-02T15:10:15.030Z,4.40
2022-09-02T15:15:00.714Z,6.38
2022-09-02T15:19:46.200Z,8.18
2022-09-02T15:24:31.298Z,3.72
2022-09-02T15:29:19.326Z,3.42
2022-09-02T15:34:04.405Z,4.22
2022-09-02T15:38:50.357Z,6.80
2022-09-02T15:43:38.891Z,5.07
2022-09-02T15:48:27.034Z,5.03
2022-09-02T15:53:12.025Z,6.22
2022-09-02T15:57:58.915Z,6.43
2022-09-02T16:02:44.229Z,4.32
2022-09-02T16:07:32.215Z,6.50
2022-09-02T16:12:17.261Z,6.43
2022-09-02T16:17:02.769Z,4.63
2022-09-02T16:21:47.845Z,5.45
2022-09-02T16:26:38.359Z,7.63
2022-09-02T16:31:25.210Z,4.37
2022-09-02T16:36:11.323Z,5.07
2022-09-02T16:40:57.625Z,2.90
2022-09-02T16:45:46.221Z,5.40
2022-09-02T16:50:31.266Z,3.92
2022-09-02T16:55:18.900Z,3.53
2022-09-02T17:00:03.974Z,3.33
2022-09-02T17:04:51.886Z,3.45
2022-09-02T17:09:38.532Z,4.22
2022-09-02T17:14:24.218Z,4.32
2022-09-02T17:19:14.729Z,6.03
2022-09-02T17:24:03.658Z,4.40
2022-09-02T17:28:55.040Z,6.35
2022-09-02T17:33:40.378Z,6.20
2022-09-02T17:38:27.253Z,5.82
2022-09-02T17:43:15.495Z,7.80
2022-09-02T17:48:19.082Z,5.75
2022-09-02T17:53:06.030Z,7.30
2022-09-02T17:58:05.246Z,7.93
2022-09-02T18:03:25.694Z,4.97
2022-09-02T18:08:24.678Z,5.47
2022-09-02T18:13:13.484Z,6.57
2022-09-02T18:17:58.829Z,4.97
2022-09-02T18:23:17.700Z,9.45
2022-09-02T18:28:15.452Z,7.18
2022-09-02T18:33:24.128Z,8.40
2022-09-02T18:38:22.562Z,11.80
2022-09-02T18:43:16.809Z,8.02
2022-09-02T18:48:06.269Z,10.50
2022-09-02T18:52:52.398Z,11.82
2022-09-02T18:57:48.149Z,13.43
2022-09-02T19:02:41.795Z,10.57
2022-09-02T19:07:40.062Z,11.60
2022-09-02T19:12:32.062Z,10.13
2022-09-02T19:17:20.307Z,12.70
2022-09-02T19:22:10.538Z,8.60
2022-09-02T19:27:00.599Z,12.57
2022-09-02T19:31:47.522Z,9.25
2022-09-02T19:36:36.190Z,10.57
2022-09-02T19:41:21.259Z,11.35
2022-09-02T19:46:07.703Z,10.88
2022-09-02T19:50:52.822Z,8.18
2022-09-02T19:55:40.810Z,13.07
2022-09-02T20:00:26.182Z,8.80
2022-09-02T20:05:12.820Z,10.07
2022-09-02T20:09:58.197Z,12.55
2022-09-02T20:14:46.296Z,9.10
2022-09-02T20:19:32.146Z,10.70
2022-09-02T20:24:24.018Z,12.38
2022-09-02T20:29:34.916Z,8.85
2022-09-02T20:34:35.903Z,12.25
2022-09-02T20:39:39.647Z,10.50
2022-09-02T20:44:46.637Z,11.77
2022-09-02T20:50:00.471Z,10.98
2022-09-02T20:54:53.511Z,11.05
2022-09-02T20:59:53.433Z,8.25
2022-09-02T21:04:44.917Z,9.18
2022-09-02T21:09:41.762Z,9.02
2022-09-02T21:14:31.548Z,8.65
2022-09-02T21:19:20.543Z,8.77
2022-09-02T21:24:11.631Z,8.98
2022-09-02T21:29:04.674Z,10.33
2022-09-02T21:33:51.799Z,9.43
2022-09-02T21:38:42.623Z,7.13
2022-09-02T21:43:46.701Z,10.98
2022-09-02T21:48:43.310Z,7.93
2022-09-02T21:53:45.386Z,6.57
2022-09-02T21:58:47.444Z,7.70
2022-09-02T22:03:44.009Z,5.82
2022-09-02T22:08:35.126Z,9.40
2022-09-02T22:13:22.651Z,6.87
2022-09-02T22:18:18.599Z,5.90
2022-09-02T22:23:15.848Z,6.80
2022-09-02T22:28:10.259Z,4.38
2022-09-02T22:33:03.455Z,4.22
2022-09-02T22:37:56.036Z,6.82
2022-09-02T22:42:44.630Z,5.30
2022-09-02T22:47:45.191Z,5.75
2022-09-02T22:52:50.440Z,6.30
2022-09-02T22:57:48.076Z,3.97
2022-09-02T23:02:38.489Z,7.32
2022-09-02T23:07:23.877Z,4.30
2022-09-02T23:12:28.791Z,6.15
2022-09-02T23:17:36.763Z,4.95
2022-09-02T23:22:34.564Z,4.63
2022-09-02T23:27:27.262Z,4.35
2022-09-02T23:32:34.958Z,7.47
2022-09-02T23:37:35.149Z,5.47
2022-09-02T23:42:20.856Z,4.63
2022-09-02T23:47:22.972Z,7.35
2022-09-02T23:52:26.847Z,9.30
2022-09-02T23:57:30.220Z,6.22
